Time;durP1;ratioP1;P1;durP2;ratioP2;P2;SDS_P1;SDS_P2;PMS_P1;PMS_P2;Temp;Humidity;BMP_temperature;BMP_pressure;BME280_temperature;BME280_humidity;BME280_pressure;Samples;Min_cycle;Max_cycle;Signal;HPM_P1;HPM_P2
2022/01/04 00:00:16;;;;;;;1.83;1.20;;;8.30;99.90;;;9.26;100.00;-20042.19;5012850;28;20656;-62
2022/01/04 00:02:44;;;;;;;2.40;1.30;;;8.30;99.90;;;9.30;100.00;-20043.53;5012882;28;20305;-60
2022/01/04 00:05:13;;;;;;;4.93;1.23;;;8.30;99.90;;;9.46;100.00;-20049.00;5012920;28;20253;-62
2022/01/04 00:07:41;;;;;;;2.47;1.10;;;8.40;99.90;;;9.57;100.00;-20052.59;5012739;28;20246;-61
2022/01/04 00:10:10;;;;;;;1.73;1.10;;;8.50;99.90;;;9.50;100.00;-20050.38;5012655;28;20654;-62
2022/01/04 00:15:26;;;;;;;1.33;1.20;;;8.60;99.90;;;9.36;100.00;-20045.59;5012540;28;20321;-62
2022/01/04 00:17:54;;;;;;;2.77;1.60;;;8.60;99.90;;;9.32;100.00;-20044.06;5012405;28;20250;-61
2022/01/04 00:20:22;;;;;;;2.23;1.20;;;8.60;99.90;;;9.26;100.00;-20042.00;5012551;28;20321;-61
2022/01/04 00:22:50;;;;;;;1.60;1.10;;;8.60;99.90;;;9.52;100.00;-20050.91;5012416;28;20230;-62
2022/01/04 00:25:18;;;;;;;1.80;1.00;;;8.50;99.90;;;9.37;100.00;-20045.94;5012422;28;20647;-63
2022/01/04 00:27:46;;;;;;;1.07;1.00;;;8.50;99.90;;;9.34;100.00;-20044.91;5012712;28;20305;-61
2022/01/04 00:30:14;;;;;;;3.00;1.43;;;8.50;99.90;;;9.43;100.00;-20048.00;4995417;28;20306;-61
2022/01/04 00:32:43;;;;;;;2.40;1.20;;;8.50;99.90;;;9.35;100.00;-20045.25;4992421;28;20438;-61
2022/01/04 00:35:12;;;;;;;3.37;1.20;;;8.50;99.90;;;9.58;100.00;-20053.13;4992668;28;20329;-61
2022/01/04 00:37:40;;;;;;;1.77;1.17;;;8.60;99.90;;;9.41;100.00;-20047.31;4992530;28;20716;-62
2022/01/04 00:40:09;;;;;;;2.10;1.03;;;8.60;99.90;;;9.33;100.00;-20044.56;4998656;28;20720;-61
2022/01/04 00:42:38;;;;;;;1.63;1.07;;;8.50;99.90;;;9.34;100.00;-20044.75;5012064;28;20301;-62
2022/01/04 00:45:07;;;;;;;1.87;1.03;;;8.50;99.90;;;9.35;100.00;-20045.25;4992358;28;20231;-61
2022/01/04 00:47:45;;;;;;;1.00;0.90;;;8.50;99.90;;;9.29;100.00;-20043.19;4992303;28;20250;-62
2022/01/04 00:50:14;;;;;;;2.10;1.00;;;8.50;99.90;;;9.35;100.00;-20045.09;4992287;28;20739;-62
2022/01/04 00:52:42;;;;;;;1.10;1.00;;;8.60;99.90;;;9.39;100.00;-20046.44;4992446;28;20253;-61
2022/01/04 00:55:10;;;;;;;1.20;1.10;;;8.60;99.90;;;9.48;100.00;-20049.53;4998375;28;20563;-62
2022/01/04 00:57:38;;;;;;;1.67;0.93;;;8.60;99.90;;;9.81;100.00;-20060.97;5012097;28;20539;-61
2022/01/04 01:00:09;;;;;;;3.10;1.10;;;8.70;99.90;;;9.74;100.00;-20058.56;5011798;28;20226;-61
2022/01/04 01:02:37;;;;;;;1.57;0.90;;;8.80;99.90;;;9.76;100.00;-20059.25;5010357;28;20736;-61
2022/01/04 01:05:07;;;;;;;1.63;0.90;;;8.70;99.90;;;9.58;100.00;-20053.13;5011794;28;20576;-61
2022/01/04 01:07:37;;;;;;;1.67;0.90;;;8.80;99.90;;;9.53;100.00;-20051.22;5011751;28;20305;-61
2022/01/04 01:10:22;;;;;;;1.47;0.90;;;8.80;99.90;;;9.56;100.00;-20052.44;5012237;28;20202;-60
2022/01/04 01:12:52;;;;;;;0.73;0.73;;;8.80;99.90;;;9.64;100.00;-20055.00;5012127;28;20242;-61
2022/01/04 01:15:21;;;;;;;2.43;0.90;;;8.80;99.90;;;9.75;100.00;-20058.75;5011594;28;20758;-60
2022/01/04 01:17:49;;;;;;;2.50;0.70;;;8.80;99.90;;;9.71;100.00;-20057.56;5011434;28;20605;-60
2022/01/04 01:20:18;;;;;;;0.80;0.50;;;8.80;99.90;;;9.64;100.00;-20055.16;5011807;28;20261;-61
2022/01/04 01:22:48;;;;;;;0.90;0.50;;;8.90;99.90;;;9.96;100.00;-20065.94;5011622;28;20309;-60
2022/01/04 01:25:17;;;;;;;0.80;0.70;;;9.00;99.90;;;9.68;100.00;-20056.53;5011143;28;20297;-61
2022/01/04 01:27:45;;;;;;;2.47;0.70;;;8.90;99.90;;;9.74;100.00;-20058.56;5012463;28;20207;-61
2022/01/04 01:30:14;;;;;;;0.77;0.67;;;8.90;99.90;;;9.70;100.00;-20057.22;5011310;28;20226;-61
2022/01/04 01:32:42;;;;;;;0.67;0.60;;;8.90;99.90;;;9.80;100.00;-20060.63;5011558;28;20253;-61
2022/01/04 01:35:10;;;;;;;1.90;0.70;;;8.90;99.90;;;9.63;100.00;-20054.66;5011466;28;20232;-61
2022/01/04 01:37:38;;;;;;;1.13;0.70;;;8.90;99.90;;;9.54;100.00;-20051.56;5013303;28;20222;-60
2022/01/04 01:40:09;;;;;;;0.70;0.60;;;8.90;99.90;;;9.55;100.00;-20051.91;5016008;28;20202;-61
2022/01/04 01:42:37;;;;;;;1.73;0.63;;;8.90;99.90;;;9.52;100.00;-20050.91;5015670;28;20242;-62
2022/01/04 01:45:07;;;;;;;0.97;0.70;;;8.80;99.90;;;9.41;100.00;-20047.31;4996043;28;20317;-62
2022/01/04 01:47:37;;;;;;;1.90;0.67;;;8.80;99.90;;;9.44;100.00;-20048.16;4995815;28;20235;-62
2022/01/04 01:50:06;;;;;;;0.73;0.60;;;8.70;99.90;;;9.52;100.00;-20050.91;4995916;28;20259;-61
2022/01/04 01:52:34;;;;;;;1.00;0.63;;;8.70;99.90;;;9.57;100.00;-20052.59;4996028;28;20233;-62
2022/01/04 01:55:02;;;;;;;1.17;0.90;;;8.70;99.90;;;9.32;100.00;-20044.22;5001437;28;20230;-61
2022/01/04 01:57:32;;;;;;;1.47;0.67;;;8.60;99.90;;;9.19;100.00;-20039.78;5015210;28;20240;-62
2022/01/04 02:00:00;;;;;;;1.30;0.67;;;8.60;99.90;;;9.18;100.00;-20039.44;5014997;28;20657;-60
2022/01/04 02:02:29;;;;;;;1.27;0.70;;;8.60;99.90;;;9.15;100.00;-20038.41;5015072;28;20314;-61
2022/01/04 02:04:57;;;;;;;0.63;0.63;;;8.50;99.90;;;9.52;100.00;-20051.06;5015113;28;20304;-61
2022/01/04 02:07:26;;;;;;;0.73;0.60;;;8.50;99.90;;;9.42;100.00;-20047.47;5015048;28;20306;-60
2022/01/04 02:10:02;;;;;;;1.60;0.80;;;8.50;99.90;;;9.23;100.00;-20041.16;5015444;28;20203;-60
2022/01/04 02:12:34;;;;;;;0.60;0.60;;;8.50;99.90;;;9.13;100.00;-20037.72;5014969;28;20313;-61
2022/01/04 02:15:06;;;;;;;1.43;0.60;;;8.40;99.90;;;9.09;100.00;-20036.19;5014821;28;20705;-64
2022/01/04 02:17:34;;;;;;;1.20;0.70;;;8.40;99.90;;;9.09;100.00;-20036.38;5014815;28;20226;-61
2022/01/04 02:20:07;;;;;;;0.87;0.70;;;8.40;99.90;;;8.95;100.00;-20031.59;5014765;28;20219;-61
2022/01/04 02:22:36;;;;;;;2.33;0.70;;;8.30;99.90;;;8.94;100.00;-20031.25;5014724;28;20314;-61
2022/01/04 02:25:06;;;;;;;1.07;0.70;;;8.30;99.90;;;8.83;100.00;-20027.47;5015370;28;20214;-61
2022/01/04 02:27:37;;;;;;;0.73;0.70;;;8.20;99.90;;;8.76;100.00;-20025.09;5014925;28;20223;-61
2022/01/04 02:30:08;;;;;;;0.77;0.77;;;8.20;99.90;;;8.79;100.00;-20025.94;5014676;28;20227;-61
2022/01/04 02:32:37;;;;;;;1.00;0.70;;;8.10;99.90;;;8.86;100.00;-20028.50;5014063;28;20781;-61
2022/01/04 02:35:08;;;;;;;1.97;0.70;;;8.10;99.90;;;8.91;100.00;-20030.06;5013826;28;20315;-61
2022/01/04 02:37:36;;;;;;;0.60;0.60;;;8.10;99.90;;;8.91;100.00;-20030.06;5014111;28;20321;-61
2022/01/04 02:40:07;;;;;;;0.60;0.60;;;8.10;99.90;;;8.98;100.00;-20032.44;5014942;28;20205;-61
2022/01/04 02:42:35;;;;;;;0.43;0.43;;;8.20;99.90;;;8.90;100.00;-20029.72;5014985;28;20269;-61
2022/01/04 02:45:04;;;;;;;1.90;0.80;;;8.10;99.90;;;8.92;100.00;-20030.56;5014344;28;20257;-61
2022/01/04 02:47:34;;;;;;;0.80;0.50;;;8.10;99.90;;;8.79;100.00;-20026.13;5013983;28;20238;-60
2022/01/04 02:50:03;;;;;;;0.90;0.80;;;8.10;99.90;;;8.79;100.00;-20026.13;5014029;28;20761;-61
2022/01/04 02:52:33;;;;;;;1.13;0.70;;;8.10;99.90;;;8.76;100.00;-20024.94;5014515;28;20245;-61
2022/01/04 02:55:02;;;;;;;1.10;0.90;;;8.10;99.90;;;8.75;100.00;-20024.75;5014367;28;20285;-60
2022/01/04 02:57:30;;;;;;;0.90;0.77;;;8.00;99.90;;;9.02;100.00;-20033.97;5014215;28;20309;-61
2022/01/04 02:59:58;;;;;;;0.80;0.80;;;8.10;99.90;;;8.95;100.00;-20031.41;5014124;28;20248;-61
2022/01/04 03:02:26;;;;;;;0.80;0.70;;;8.10;99.90;;;8.80;100.00;-20026.47;5013822;28;20229;-61
2022/01/04 03:04:54;;;;;;;1.03;0.93;;;8.10;99.90;;;8.80;100.00;-20026.28;5014065;28;20226;-61
2022/01/04 03:07:22;;;;;;;1.00;0.90;;;8.10;99.90;;;9.00;100.00;-20033.28;5013801;28;20590;-62
2022/01/04 03:09:53;;;;;;;1.50;1.00;;;8.10;99.90;;;8.84;100.00;-20027.84;5014457;28;20210;-62
2022/01/04 03:12:22;;;;;;;1.33;0.80;;;8.20;99.90;;;8.86;100.00;-20028.34;5013852;28;20341;-61
2022/01/04 03:14:50;;;;;;;1.57;1.00;;;8.10;99.90;;;9.04;100.00;-20034.66;5013885;28;20236;-62
2022/01/04 03:17:18;;;;;;;2.43;1.00;;;8.10;99.90;;;8.90;100.00;-20029.88;5013702;28;20297;-62
2022/01/04 03:19:46;;;;;;;1.73;0.80;;;8.10;99.90;;;8.86;100.00;-20028.50;5013502;28;20605;-61
2022/01/04 03:22:14;;;;;;;0.83;0.70;;;8.10;99.90;;;8.88;100.00;-20029.19;5013686;28;20266;-61
2022/01/04 03:24:42;;;;;;;2.50;0.70;;;8.10;99.90;;;8.78;100.00;-20025.78;5014395;28;20226;-61
2022/01/04 03:27:12;;;;;;;0.90;0.80;;;8.10;99.90;;;8.82;100.00;-20026.97;5013441;28;20270;-62
2022/01/04 03:29:41;;;;;;;1.03;0.70;;;8.10;99.90;;;8.79;100.00;-20026.13;5013254;28;20317;-61
2022/01/04 03:32:09;;;;;;;1.13;0.80;;;8.10;99.90;;;8.75;100.00;-20024.75;5013671;28;20329;-61
2022/01/04 03:34:37;;;;;;;1.33;0.87;;;8.10;99.90;;;8.75;100.00;-20024.75;5013287;28;20301;-60
2022/01/04 03:37:06;;;;;;;1.50;0.90;;;8.00;99.90;;;8.88;100.00;-20029.03;5013815;28;20546;-61
2022/01/04 03:39:34;;;;;;;1.23;0.70;;;8.10;99.90;;;8.81;100.00;-20026.63;5013321;28;20249;-62
2022/01/04 03:42:03;;;;;;;1.10;1.00;;;8.00;99.90;;;8.74;100.00;-20024.25;5013162;28;20250;-61
2022/01/04 03:44:33;;;;;;;0.70;0.70;;;8.00;99.90;;;8.71;100.00;-20023.22;5013187;28;20265;-60
2022/01/04 03:47:01;;;;;;;0.70;0.60;;;8.00;99.90;;;8.68;100.00;-20022.19;5012959;28;20675;-61
2022/01/04 03:49:29;;;;;;;2.40;0.80;;;8.00;99.90;;;8.86;100.00;-20028.50;5012977;28;20664;-61
2022/01/04 03:51:58;;;;;;;1.33;0.90;;;8.00;99.90;;;8.76;100.00;-20025.09;5013743;28;20651;-60
2022/01/04 03:54:26;;;;;;;1.10;0.73;;;8.00;99.90;;;8.72;100.00;-20023.72;5012434;28;20246;-60
2022/01/04 03:56:54;;;;;;;1.27;1.03;;;8.00;99.90;;;8.68;100.00;-20022.34;5012671;28;20309;-62
2022/01/04 03:59:22;;;;;;;14.17;7.93;;;8.00;99.90;;;8.83;100.00;-20027.31;5012610;28;20690;-61
2022/01/04 04:01:52;;;;;;;3.93;2.30;;;8.00;99.90;;;8.90;100.00;-20029.88;5012219;28;20239;-61
2022/01/04 04:04:21;;;;;;;1.30;1.20;;;8.00;99.90;;;8.99;100.00;-20032.78;5012628;28;20599;-58
2022/01/04 04:06:49;;;;;;;1.50;1.40;;;8.00;99.90;;;9.08;100.00;-20036.03;5012840;28;20624;-58
2022/01/04 04:09:17;;;;;;;1.10;1.00;;;8.10;99.90;;;9.02;100.00;-20033.81;5012266;28;20253;-60
2022/01/04 04:11:45;;;;;;;2.07;1.00;;;8.10;99.90;;;8.92;100.00;-20030.38;5012836;28;20227;-59
2022/01/04 04:14:13;;;;;;;1.90;1.10;;;8.10;99.90;;;8.96;100.00;-20031.94;5004220;28;20314;-58
2022/01/04 04:17:03;;;;;;;1.50;1.07;;;8.10;99.90;;;9.04;100.00;-20034.66;4992456;28;20255;-59
2022/01/04 04:19:31;;;;;;;1.17;0.87;;;8.00;99.90;;;9.09;100.00;-20036.19;4992384;28;20727;-59
2022/01/04 04:22:00;;;;;;;0.90;0.80;;;8.10;99.90;;;8.89;100.00;-20029.53;4993008;28;20227;-59
2022/01/04 04:24:28;;;;;;;1.47;1.07;;;8.10;99.90;;;8.88;100.00;-20029.19;4992493;28;20366;-59
2022/01/04 04:26:56;;;;;;;2.53;1.00;;;8.00;99.90;;;8.81;100.00;-20026.63;5012160;28;20257;-59
2022/01/04 04:29:24;;;;;;;1.43;1.10;;;8.00;99.90;;;8.93;100.00;-20030.91;5012240;28;20284;-58
2022/01/04 04:31:52;;;;;;;1.70;1.40;;;8.10;99.90;;;8.88;100.00;-20029.19;5012107;28;20318;-60
2022/01/04 04:34:21;;;;;;;3.30;1.70;;;8.00;99.90;;;9.10;100.00;-20036.72;5012030;28;20297;-58
2022/01/04 04:36:50;;;;;;;2.23;1.33;;;8.10;99.90;;;8.88;100.00;-20029.03;5012901;28;20203;-60
2022/01/04 04:39:18;;;;;;;1.40;1.30;;;8.10;99.90;;;9.18;100.00;-20039.28;5012133;28;20230;-60
2022/01/04 04:41:46;;;;;;;1.97;1.50;;;8.10;99.90;;;9.15;100.00;-20038.25;5011950;28;20318;-61
2022/01/04 04:44:14;;;;;;;1.60;1.50;;;8.10;99.90;;;8.90;100.00;-20029.72;4998607;28;20235;-61
2022/01/04 04:46:43;;;;;;;2.53;1.83;;;8.10;99.90;;;8.81;100.00;-20026.81;4992036;28;20254;-60
2022/01/04 04:49:11;;;;;;;2.37;1.57;;;8.10;99.90;;;9.21;100.00;-20040.47;4992065;28;20602;-61
2022/01/04 04:51:40;;;;;;;1.83;1.50;;;8.10;99.90;;;9.15;100.00;-20038.25;4992898;28;20294;-61
2022/01/04 04:54:09;;;;;;;2.27;1.37;;;8.10;99.90;;;8.93;100.00;-20030.91;4991845;28;20246;-61
2022/01/04 04:56:38;;;;;;;1.43;1.30;;;8.10;99.90;;;9.02;100.00;-20033.97;5010236;28;20313;-61
2022/01/04 04:59:06;;;;;;;2.23;1.40;;;8.10;99.90;;;8.96;100.00;-20031.94;5011919;28;20226;-61
2022/01/04 05:01:35;;;;;;;2.50;1.50;;;8.10;99.90;;;8.73;100.00;-20023.91;5011926;28;20662;-61
2022/01/04 05:04:04;;;;;;;2.00;1.80;;;8.00;99.90;;;9.05;100.00;-20035.00;5012180;28;20233;-61
2022/01/04 05:06:32;;;;;;;2.20;2.00;;;8.00;99.90;;;9.07;100.00;-20035.69;5011500;28;20229;-61
2022/01/04 05:09:02;;;;;;;3.63;2.20;;;8.10;99.90;;;8.94;100.00;-20031.06;5011529;28;20223;-61
2022/01/04 05:11:30;;;;;;;4.67;2.10;;;8.10;99.90;;;8.89;100.00;-20029.38;5010510;28;20313;-60
2022/01/04 05:13:59;;;;;;;3.23;2.30;;;8.00;99.90;;;8.81;100.00;-20026.81;5011152;28;20301;-60
2022/01/04 05:16:27;;;;;;;2.90;2.70;;;8.00;99.90;;;8.67;100.00;-20022.03;5011461;28;20308;-60
2022/01/04 05:18:55;;;;;;;3.67;3.30;;;8.00;99.90;;;8.61;100.00;-20020.13;5011829;28;20553;-61
2022/01/04 05:21:23;;;;;;;4.67;2.80;;;7.90;99.90;;;8.59;100.00;-20019.28;5011411;28;20247;-60
2022/01/04 05:23:54;;;;;;;2.90;2.60;;;7.90;99.90;;;8.58;100.00;-20018.94;5011262;28;20317;-60
2022/01/04 05:26:23;;;;;;;4.57;2.80;;;7.90;99.90;;;8.79;100.00;-20025.94;5011157;28;20736;-60
2022/01/04 05:28:51;;;;;;;3.33;3.03;;;7.90;99.90;;;8.61;100.00;-20020.13;5011303;28;20264;-60
2022/01/04 05:31:19;;;;;;;5.20;2.90;;;7.90;99.90;;;8.59;100.00;-20019.47;5011112;28;20227;-60
2022/01/04 05:33:47;;;;;;;5.47;2.80;;;7.90;99.90;;;8.68;100.00;-20022.34;5011404;28;20198;-60
2022/01/04 05:36:16;;;;;;;4.27;2.93;;;7.90;99.90;;;8.57;100.00;-20018.59;5010951;28;20301;-60
2022/01/04 05:38:44;;;;;;;3.90;3.03;;;7.80;99.90;;;8.70;100.00;-20023.03;5010994;28;20736;-61
2022/01/04 05:41:12;;;;;;;4.03;3.20;;;7.90;99.90;;;8.59;100.00;-20019.28;5011368;28;20309;-61
2022/01/04 05:43:41;;;;;;;3.87;3.10;;;7.90;99.90;;;8.64;100.00;-20021.00;5002158;28;20778;-61
2022/01/04 05:46:09;;;;;;;6.07;3.60;;;7.90;99.90;;;8.66;100.00;-20021.69;4991599;28;20239;-61
2022/01/04 05:48:37;;;;;;;5.90;3.33;;;7.90;99.90;;;8.59;100.00;-20019.47;4991597;28;20200;-61
2022/01/04 05:51:05;;;;;;;4.80;3.50;;;7.90;99.90;;;8.57;100.00;-20018.78;4991463;28;20234;-61
2022/01/04 05:53:34;;;;;;;4.93;3.60;;;7.80;99.90;;;8.66;100.00;-20021.50;4991204;28;20309;-62
2022/01/04 05:56:02;;;;;;;6.00;3.63;;;7.80;99.90;;;8.67;100.00;-20021.84;5004814;28;20229;-60
2022/01/04 05:58:30;;;;;;;4.27;3.43;;;7.90;99.90;;;8.55;100.00;-20017.91;5010471;28;20413;-61
2022/01/04 06:01:00;;;;;;;5.07;3.27;;;7.90;99.90;;;8.54;100.00;-20017.75;5011444;28;20298;-60
2022/01/04 06:03:28;;;;;;;4.83;3.50;;;7.80;99.90;;;8.52;100.00;-20016.91;5010279;28;20226;-60
2022/01/04 06:05:56;;;;;;;3.93;3.33;;;7.80;99.90;;;8.53;100.00;-20017.22;5010536;28;20310;-59
2022/01/04 06:08:30;;;;;;;4.77;3.63;;;7.80;99.90;;;8.71;100.00;-20023.22;5010520;28;20306;-61
2022/01/04 06:10:58;;;;;;;4.57;3.80;;;7.80;99.90;;;8.54;100.00;-20017.75;5010270;28;20275;-60
2022/01/04 06:16:09;;;;;;;6.33;4.07;;;7.80;99.90;;;8.55;100.00;-20017.91;4978472;28;20199;-59
2022/01/04 06:18:41;;;;;;;4.93;3.93;;;7.80;99.90;;;8.46;100.00;-20014.84;5010716;28;20728;-61
2022/01/04 06:21:10;;;;;;;5.27;3.90;;;7.80;99.90;;;8.55;100.00;-20018.09;5010724;28;20229;-60
2022/01/04 06:23:39;;;;;;;4.77;3.67;;;7.80;99.90;;;8.58;100.00;-20018.94;5011886;28;20310;-60
2022/01/04 06:26:07;;;;;;;5.77;3.43;;;7.80;99.90;;;8.64;100.00;-20021.16;5014056;28;20645;-61
2022/01/04 06:28:35;;;;;;;4.70;3.60;;;7.80;99.90;;;8.63;100.00;-20020.81;5014100;28;20226;-61
2022/01/04 06:31:03;;;;;;;3.67;3.33;;;7.80;99.90;;;8.84;100.00;-20027.66;5014467;28;20659;-60
2022/01/04 06:33:33;;;;;;;4.63;3.70;;;7.90;99.90;;;8.76;100.00;-20025.09;5013690;28;20258;-63
2022/01/04 06:36:01;;;;;;;3.90;3.00;;;7.90;99.90;;;8.55;100.00;-20017.91;5013998;28;20317;-61
2022/01/04 06:38:29;;;;;;;4.23;3.30;;;7.80;99.90;;;8.76;100.00;-20024.94;5013756;28;20331;-61
2022/01/04 06:40:56;;;;;;;5.20;3.27;;;7.80;99.90;;;8.76;100.00;-20025.09;5013864;28;20301;-62
2022/01/04 06:43:24;;;;;;;3.63;3.10;;;7.80;99.90;;;8.62;100.00;-20020.47;5007032;28;20235;-61
2022/01/04 06:45:52;;;;;;;3.40;2.67;;;7.80;99.90;;;8.62;100.00;-20020.31;4994906;28;20226;-61
2022/01/04 06:48:20;;;;;;;3.70;3.10;;;7.80;99.90;;;8.58;100.00;-20019.13;4993855;28;20234;-61
2022/01/04 06:50:51;;;;;;;3.50;3.07;;;7.90;99.90;;;8.56;100.00;-20018.25;4994436;28;20231;-61
2022/01/04 06:53:19;;;;;;;4.40;3.30;;;7.80;99.90;;;8.58;100.00;-20019.13;4994250;28;20306;-61
2022/01/04 06:55:50;;;;;;;4.33;3.40;;;7.80;99.90;;;8.63;100.00;-20020.81;5005296;28;20322;-61
2022/01/04 06:58:18;;;;;;;5.10;3.57;;;7.80;99.90;;;8.61;100.00;-20019.97;5013918;28;20260;-63
2022/01/04 07:00:46;;;;;;;5.47;3.57;;;7.80;99.90;;;8.53;100.00;-20017.22;5014024;28;20213;-63
2022/01/04 07:03:15;;;;;;;6.27;4.03;;;7.90;99.90;;;8.58;100.00;-20018.94;5013078;28;20231;-62
2022/01/04 07:05:43;;;;;;;5.97;4.13;;;7.80;99.90;;;8.71;100.00;-20023.22;5013241;28;20293;-62
2022/01/04 07:08:12;;;;;;;5.13;4.47;;;7.80;99.90;;;8.61;100.00;-20019.97;5013507;28;20254;-62
2022/01/04 07:10:40;;;;;;;4.63;3.93;;;7.90;99.90;;;8.62;100.00;-20020.31;5013486;28;20222;-62
2022/01/04 07:13:08;;;;;;;5.70;4.03;;;7.90;99.90;;;8.76;100.00;-20025.09;5013263;28;20765;-63
2022/01/04 07:15:37;;;;;;;4.67;4.20;;;7.80;99.90;;;8.82;100.00;-20026.97;5013422;28;20657;-62
2022/01/04 07:18:06;;;;;;;4.73;4.10;;;7.90;99.90;;;8.68;100.00;-20022.34;5012935;28;20257;-62
2022/01/04 07:20:34;;;;;;;4.80;4.30;;;7.90;99.90;;;8.61;100.00;-20019.97;5013209;28;20222;-63
2022/01/04 07:23:02;;;;;;;5.50;4.23;;;7.90;99.90;;;8.75;100.00;-20024.75;5013279;28;20232;-62
2022/01/04 07:25:31;;;;;;;5.13;4.63;;;7.90;99.90;;;8.75;100.00;-20024.75;5013386;28;20295;-62
2022/01/04 07:28:00;;;;;;;5.43;4.03;;;7.90;99.90;;;8.65;100.00;-20021.34;5013815;28;20690;-63
2022/01/04 07:30:28;;;;;;;5.10;4.37;;;7.90;99.90;;;8.54;100.00;-20017.75;5013211;28;20226;-62
2022/01/04 07:32:56;;;;;;;5.10;4.20;;;7.80;99.90;;;8.50;100.00;-20016.38;5013452;28;20257;-62
2022/01/04 07:35:24;;;;;;;5.80;4.10;;;7.80;99.90;;;8.70;100.00;-20023.03;5012390;28;20226;-62
2022/01/04 07:37:52;;;;;;;5.80;4.27;;;7.80;99.90;;;8.60;100.00;-20019.81;5013266;28;20241;-62
2022/01/04 07:40:21;;;;;;;6.90;3.90;;;7.80;99.90;;;8.77;100.00;-20025.44;5013360;28;20202;-61
2022/01/04 07:42:50;;;;;;;4.97;3.80;;;7.80;99.90;;;8.64;100.00;-20021.00;5012097;28;20298;-61
2022/01/04 07:45:18;;;;;;;6.83;4.27;;;7.80;99.90;;;8.67;100.00;-20022.03;4993190;28;20223;-61
2022/01/04 07:47:46;;;;;;;4.47;3.70;;;7.80;99.90;;;8.58;100.00;-20019.13;4993448;28;20624;-64
2022/01/04 07:50:14;;;;;;;5.07;3.87;;;7.80;99.90;;;8.74;100.00;-20024.25;4993088;28;20227;-61
2022/01/04 07:52:42;;;;;;;6.83;3.90;;;7.90;99.90;;;8.71;100.00;-20023.22;4993351;28;20223;-61
2022/01/04 07:55:10;;;;;;;4.50;3.93;;;7.90;99.90;;;8.71;100.00;-20023.38;4999257;28;20222;-61
2022/01/04 07:57:39;;;;;;;4.87;4.03;;;7.90;99.90;;;8.78;100.00;-20025.78;5013324;28;20210;-61
2022/01/04 08:00:10;;;;;;;4.40;3.77;;;7.90;99.90;;;8.71;100.00;-20023.22;5012103;28;20226;-61
2022/01/04 08:02:40;;;;;;;4.63;4.10;;;7.90;99.90;;;8.72;100.00;-20023.56;5012201;28;20227;-60
2022/01/04 08:05:09;;;;;;;5.33;3.93;;;7.90;99.90;;;8.63;100.00;-20020.81;5012322;28;20285;-61
2022/01/04 08:07:37;;;;;;;5.20;4.70;;;7.90;99.90;;;8.72;100.00;-20023.72;5012602;28;20802;-62
2022/01/04 08:10:06;;;;;;;4.47;3.90;;;7.90;99.90;;;8.69;100.00;-20022.72;5013063;28;20202;-62
2022/01/04 08:12:35;;;;;;;5.57;4.27;;;7.90;99.90;;;8.73;100.00;-20024.06;5012850;28;20585;-60
2022/01/04 08:15:04;;;;;;;4.93;4.23;;;7.90;99.90;;;8.69;100.00;-20022.53;5012028;28;20237;-61
2022/01/04 08:17:34;;;;;;;5.70;4.20;;;7.90;99.90;;;8.77;100.00;-20025.44;5012152;28;20244;-60
2022/01/04 08:20:03;;;;;;;7.37;5.50;;;7.90;99.90;;;8.75;100.00;-20024.75;5011836;28;20817;-61
2022/01/04 08:22:32;;;;;;;5.77;5.10;;;7.90;99.90;;;8.62;100.00;-20020.47;5012042;28;20233;-61
2022/01/04 08:25:02;;;;;;;9.97;7.37;;;7.90;99.90;;;8.65;100.00;-20021.34;5012478;28;20219;-62
2022/01/04 08:27:30;;;;;;;6.73;6.03;;;7.90;99.90;;;8.69;100.00;-20022.72;5011946;28;20733;-62
2022/01/04 08:30:01;;;;;;;8.37;7.53;;;7.90;99.90;;;8.72;100.00;-20023.72;5011871;28;20230;-63
2022/01/04 08:32:29;;;;;;;8.47;6.03;;;7.90;99.90;;;8.77;100.00;-20025.44;5011972;28;20230;-61
2022/01/04 08:34:58;;;;;;;6.43;5.20;;;7.90;99.90;;;8.76;100.00;-20025.09;5011719;28;20253;-61
2022/01/04 08:37:26;;;;;;;5.40;4.70;;;7.90;99.90;;;8.80;100.00;-20026.47;5011913;28;20284;-62
2022/01/04 08:39:54;;;;;;;5.83;5.27;;;7.90;99.90;;;8.68;100.00;-20022.34;5012384;28;20194;-62
2022/01/04 08:42:23;;;;;;;7.77;5.63;;;7.90;99.90;;;8.72;100.00;-20023.72;5011463;28;20226;-62
2022/01/04 08:44:51;;;;;;;5.87;5.10;;;8.00;99.90;;;8.66;100.00;-20021.69;4993382;28;20711;-62
2022/01/04 08:47:19;;;;;;;6.07;5.23;;;8.00;99.90;;;8.84;100.00;-20027.66;4991635;28;20309;-62
2022/01/04 08:49:47;;;;;;;5.93;5.17;;;8.00;99.90;;;8.81;100.00;-20026.63;4991987;28;20586;-62
2022/01/04 08:52:17;;;;;;;7.97;5.87;;;8.00;99.90;;;8.86;100.00;-20028.50;4992155;28;20211;-62
2022/01/04 08:54:45;;;;;;;8.77;5.50;;;8.00;99.90;;;8.89;100.00;-20029.38;4994733;28;20219;-63
2022/01/04 08:57:13;;;;;;;8.27;6.00;;;8.00;99.90;;;8.96;100.00;-20031.94;5011172;28;20223;-63
2022/01/04 08:59:41;;;;;;;8.03;5.63;;;8.00;99.90;;;8.85;100.00;-20028.00;5011223;28;20230;-63
2022/01/04 09:02:09;;;;;;;7.13;5.87;;;8.10;99.90;;;8.89;100.00;-20029.53;5011159;28;20757;-61
2022/01/04 09:04:37;;;;;;;7.20;5.00;;;8.10;99.90;;;8.90;100.00;-20029.72;5011174;28;20226;-63
2022/01/04 09:07:06;;;;;;;5.80;4.13;;;8.00;99.90;;;8.81;100.00;-20026.63;5011501;28;20690;-63
2022/01/04 09:09:37;;;;;;;4.77;4.00;;;8.00;99.90;;;8.90;100.00;-20029.88;5011285;28;20210;-63
2022/01/04 09:12:32;;;;;;;4.57;3.70;;;8.10;99.90;;;8.95;100.00;-20031.41;5010999;28;20238;-62
2022/01/04 09:15:06;;;;;;;4.03;3.50;;;8.10;99.90;;;8.86;100.00;-20028.34;5011335;28;20581;-62
2022/01/04 09:20:20;;;;;;;4.30;3.23;;;8.20;99.90;;;8.95;100.00;-20031.41;5011283;28;20596;-62
2022/01/04 09:22:48;;;;;;;4.10;3.57;;;8.20;99.90;;;8.97;100.00;-20032.09;5011050;28;20245;-63
2022/01/04 09:25:18;;;;;;;3.83;3.17;;;8.20;99.90;;;9.00;100.00;-20033.13;5011159;28;20228;-62
2022/01/04 09:27:46;;;;;;;4.63;3.57;;;8.30;99.90;;;9.12;100.00;-20037.22;5011312;28;20202;-62
2022/01/04 09:30:14;;;;;;;4.60;3.40;;;8.30;99.90;;;9.10;100.00;-20036.72;5010702;28;20249;-62
2022/01/04 09:32:42;;;;;;;3.40;3.10;;;8.30;99.90;;;9.23;100.00;-20040.97;5010854;28;20226;-62
2022/01/04 09:35:12;;;;;;;2.83;2.47;;;8.40;99.90;;;9.26;100.00;-20042.00;5010996;28;20235;-62
2022/01/04 09:37:40;;;;;;;2.10;1.90;;;8.40;99.90;;;9.24;100.00;-20041.50;5010729;28;20237;-62
2022/01/04 09:40:11;;;;;;;2.70;2.00;;;8.40;99.90;;;9.22;100.00;-20040.81;5011347;28;20207;-63
2022/01/04 09:42:40;;;;;;;1.90;1.70;;;8.40;99.90;;;9.21;100.00;-20040.31;5010905;28;20195;-62
2022/01/04 09:45:10;;;;;;;2.90;2.23;;;8.40;99.90;;;9.18;100.00;-20039.44;4990799;28;20614;-63
2022/01/04 09:47:38;;;;;;;2.77;1.90;;;8.40;99.90;;;9.25;100.00;-20041.84;4990682;28;20235;-63
2022/01/04 09:50:10;;;;;;;2.00;1.60;;;8.40;99.90;;;9.13;100.00;-20037.56;4991212;28;20237;-63
2022/01/04 09:52:46;;;;;;;2.43;1.40;;;8.40;99.90;;;9.08;100.00;-20036.03;5006792;28;20325;-62
2022/01/04 09:55:15;;;;;;;2.53;1.80;;;8.40;99.90;;;9.01;100.00;-20033.63;5002962;28;20511;-64
2022/01/04 09:57:48;;;;;;;1.57;1.37;;;8.30;99.90;;;9.13;100.00;-20037.56;4991669;28;20208;-63
2022/01/04 10:00:19;;;;;;;2.67;1.97;;;8.30;99.90;;;9.11;100.00;-20037.06;4995137;28;20322;-62
2022/01/04 10:02:50;;;;;;;3.50;2.40;;;8.30;99.90;;;9.13;100.00;-20037.56;5001816;28;20219;-62
2022/01/04 10:05:22;;;;;;;4.47;3.70;;;8.30;99.90;;;9.14;100.00;-20038.06;5014548;28;20701;-63
2022/01/04 10:08:01;;;;;;;5.57;5.03;;;8.30;99.90;;;9.09;100.00;-20036.19;5014570;28;20219;-61
2022/01/04 10:10:30;;;;;;;5.80;4.90;;;8.30;99.90;;;9.15;100.00;-20038.41;5014655;28;20246;-63
2022/01/04 10:13:03;;;;;;;5.27;4.77;;;8.40;99.90;;;9.12;100.00;-20037.41;5015172;28;20206;-62
2022/01/04 10:15:40;;;;;;;6.23;5.07;;;8.40;99.90;;;9.13;100.00;-20037.56;5014283;28;20737;-62
2022/01/04 10:18:24;;;;;;;5.87;5.20;;;8.40;99.90;;;9.15;100.00;-20038.41;5014221;28;20230;-63
2022/01/04 10:21:13;;;;;;;6.63;5.83;;;8.40;99.90;;;9.17;100.00;-20039.09;5014633;28;20547;-62
2022/01/04 10:23:50;;;;;;;4.83;4.40;;;8.40;99.90;;;9.15;100.00;-20038.25;5014372;28;20231;-64
2022/01/04 10:26:31;;;;;;;4.90;4.40;;;8.40;99.90;;;9.14;100.00;-20038.06;5014249;28;20871;-63
2022/01/04 10:29:01;;;;;;;7.13;6.43;;;8.40;99.90;;;9.15;100.00;-20038.41;5014316;28;20230;-63
2022/01/04 10:31:28;;;;;;;6.20;4.90;;;8.40;99.90;;;9.18;100.00;-20039.28;5014048;28;20695;-63
2022/01/04 10:34:01;;;;;;;4.33;3.87;;;8.40;99.90;;;9.21;100.00;-20040.47;5013995;28;20187;-64
2022/01/04 10:36:39;;;;;;;4.33;3.83;;;8.40;99.90;;;9.12;100.00;-20037.41;5013278;28;20235;-63